createdAt,value
2022-07-30T00:01:54.124Z,17.80
2022-07-30T00:04:20.914Z,17.80
2022-07-30T00:06:47.592Z,17.90
2022-07-30T00:09:14.232Z,17.90
2022-07-30T00:11:40.969Z,17.80
2022-07-30T00:14:08.771Z,17.80
2022-07-30T00:16:35.632Z,17.80
2022-07-30T00:19:02.697Z,17.80
2022-07-30T00:21:38.762Z,17.70
2022-07-30T00:24:06.391Z,17.80
2022-07-30T00:26:33.040Z,17.80
2022-07-30T00:28:59.768Z,17.80
2022-07-30T00:31:26.424Z,17.70
2022-07-30T00:33:53.132Z,17.70
2022-07-30T00:36:19.777Z,17.70
2022-07-30T00:38:46.414Z,17.70
2022-07-30T00:41:13.390Z,17.70
2022-07-30T00:43:42.604Z,17.70
2022-07-30T00:46:09.407Z,17.70
2022-07-30T00:48:36.152Z,17.60
2022-07-30T00:51:02.911Z,17.60
2022-07-30T00:53:29.988Z,17.60
2022-07-30T00:55:56.618Z,17.70
2022-07-30T00:58:23.263Z,17.60
2022-07-30T01:00:49.960Z,17.60
2022-07-30T01:03:16.694Z,17.60
2022-07-30T01:05:43.322Z,17.60
2022-07-30T01:08:09.993Z,17.60
2022-07-30T01:10:36.689Z,17.50
2022-07-30T01:13:05.055Z,17.50
2022-07-30T01:15:32.420Z,17.50
2022-07-30T01:18:01.386Z,17.50
2022-07-30T01:20:36.596Z,17.40
2022-07-30T01:23:25.856Z,17.40
2022-07-30T01:26:09.691Z,17.40
2022-07-30T01:28:48.973Z,17.50
2022-07-30T01:31:17.272Z,17.40
2022-07-30T01:33:48.604Z,17.30
2022-07-30T01:36:20.827Z,17.30
2022-07-30T01:38:49.687Z,17.30
2022-07-30T01:41:18.588Z,17.20
2022-07-30T01:43:46.677Z,17.20
2022-07-30T01:46:16.150Z,17.20
2022-07-30T01:48:44.018Z,17.20
2022-07-30T01:51:12.865Z,17.20
2022-07-30T01:53:41.304Z,17.10
2022-07-30T01:56:11.518Z,17.10
2022-07-30T01:58:39.823Z,17.10
2022-07-30T02:01:07.272Z,17.10
2022-07-30T02:03:35.294Z,17.10
2022-07-30T02:06:21.169Z,17.10
2022-07-30T02:08:59.144Z,17.10
2022-07-30T02:11:26.131Z,17.10
2022-07-30T02:13:57.126Z,17.10
2022-07-30T02:16:30.789Z,17.10
2022-07-30T02:19:09.599Z,17.00
2022-07-30T02:21:50.396Z,16.90
2022-07-30T02:24:21.713Z,16.90
2022-07-30T02:26:51.209Z,16.90
2022-07-30T02:29:19.410Z,16.90
2022-07-30T02:31:46.720Z,16.80
2022-07-30T02:34:14.414Z,16.90
2022-07-30T02:36:42.776Z,16.90
2022-07-30T02:39:10.251Z,16.90
2022-07-30T02:41:39.352Z,16.90
2022-07-30T02:44:06.858Z,16.90
2022-07-30T02:46:34.700Z,16.90
2022-07-30T02:49:02.687Z,16.90
2022-07-30T02:51:30.419Z,17.00
2022-07-30T02:53:58.628Z,17.00
2022-07-30T02:56:28.252Z,17.00
2022-07-30T02:58:56.974Z,17.00
2022-07-30T03:01:24.949Z,17.00
2022-07-30T03:03:52.627Z,17.00
2022-07-30T03:06:19.951Z,17.00
2022-07-30T03:08:46.706Z,17.00
2022-07-30T03:11:15.438Z,17.00
2022-07-30T03:13:42.064Z,17.00
2022-07-30T03:16:10.725Z,17.00
2022-07-30T03:18:40.353Z,17.10
2022-07-30T03:21:09.875Z,17.10
2022-07-30T03:23:37.647Z,17.20
2022-07-30T03:26:06.755Z,17.20
2022-07-30T03:28:36.745Z,17.20
2022-07-30T03:31:03.949Z,17.10
2022-07-30T03:33:38.627Z,17.20
2022-07-30T03:36:06.868Z,17.20
2022-07-30T03:38:36.709Z,17.10
2022-07-30T03:41:05.035Z,17.10
2022-07-30T03:43:32.979Z,17.10
2022-07-30T03:46:02.904Z,17.20
2022-07-30T03:48:30.226Z,17.20
2022-07-30T03:50:57.834Z,17.20
2022-07-30T03:53:24.757Z,17.20
2022-07-30T03:55:52.629Z,17.20
2022-07-30T03:58:19.516Z,17.20
2022-07-30T04:00:50.250Z,17.20
2022-07-30T04:03:31.737Z,17.20
2022-07-30T04:05:59.021Z,17.20
2022-07-30T04:08:25.671Z,17.20
2022-07-30T04:10:52.606Z,17.20
2022-07-30T04:13:19.466Z,17.20
2022-07-30T04:16:41.219Z,17.20
2022-07-30T04:19:00.025Z,17.20
2022-07-30T04:21:28.726Z,17.20
2022-07-30T04:24:04.060Z,17.20
2022-07-30T04:26:33.073Z,17.20
2022-07-30T04:29:00.798Z,17.20
2022-07-30T04:31:29.172Z,17.10
2022-07-30T04:33:55.926Z,17.20
2022-07-30T04:36:31.090Z,17.20
2022-07-30T04:38:58.798Z,17.20
2022-07-30T04:41:25.843Z,17.30
2022-07-30T04:43:53.184Z,17.30
2022-07-30T04:46:19.873Z,17.30
2022-07-30T04:48:48.216Z,17.40
2022-07-30T04:51:29.449Z,17.40
2022-07-30T04:53:58.574Z,17.40
2022-07-30T04:56:25.952Z,17.50
2022-07-30T04:58:53.702Z,17.50
2022-07-30T05:01:24.420Z,17.50
2022-07-30T05:04:07.119Z,17.60
2022-07-30T05:06:34.924Z,17.60
2022-07-30T05:09:01.836Z,17.60
2022-07-30T05:11:28.450Z,17.60
2022-07-30T05:13:55.058Z,17.60
2022-07-30T05:16:21.736Z,17.50
2022-07-30T05:18:48.427Z,17.50
2022-07-30T05:21:15.049Z,17.60
2022-07-30T05:23:41.949Z,17.60
2022-07-30T05:26:21.150Z,17.60
2022-07-30T05:28:53.566Z,17.50
2022-07-30T05:31:22.022Z,17.60
2022-07-30T05:33:48.729Z,17.60
2022-07-30T05:36:15.378Z,17.60
2022-07-30T05:38:42.006Z,17.60
2022-07-30T05:41:31.102Z,17.70
2022-07-30T05:43:55.693Z,17.60
2022-07-30T05:46:23.219Z,17.70
2022-07-30T05:48:50.186Z,17.70
2022-07-30T05:51:17.252Z,17.70
2022-07-30T05:53:43.884Z,17.70
2022-07-30T05:56:10.534Z,17.70
2022-07-30T05:58:37.160Z,17.60
2022-07-30T06:01:03.791Z,17.70
2022-07-30T06:03:30.509Z,17.70
2022-07-30T06:05:57.311Z,17.80
2022-07-30T06:08:23.967Z,17.70
2022-07-30T06:10:50.567Z,17.70
2022-07-30T06:13:17.195Z,17.80
2022-07-30T06:15:43.853Z,17.90
2022-07-30T06:18:10.605Z,18.10
2022-07-30T06:20:37.494Z,18.10
2022-07-30T06:23:04.118Z,18.40
2022-07-30T06:25:30.969Z,18.40
2022-07-30T06:27:57.593Z,18.50
2022-07-30T06:30:30.345Z,18.70
2022-07-30T06:32:58.113Z,18.80
2022-07-30T06:35:24.793Z,19.00
2022-07-30T06:38:06.247Z,19.00
2022-07-30T06:40:34.662Z,19.20
2022-07-30T06:43:01.327Z,19.40
2022-07-30T06:45:27.964Z,19.50
2022-07-30T06:47:58.079Z,19.40
2022-07-30T06:50:25.307Z,19.60
2022-07-30T06:52:51.934Z,19.60
2022-07-30T06:55:18.734Z,19.70
2022-07-30T06:57:45.371Z,19.80
2022-07-30T07:00:12.523Z,20.00
2022-07-30T07:02:39.256Z,20.00
2022-07-30T07:05:07.426Z,20.00
2022-07-30T07:07:42.973Z,20.20
2022-07-30T07:10:11.389Z,20.20
2022-07-30T07:12:38.215Z,20.20
2022-07-30T07:15:05.859Z,20.20
2022-07-30T07:17:32.500Z,20.20
2022-07-30T07:20:02.316Z,20.40
2022-07-30T07:22:29.520Z,20.40
2022-07-30T07:24:56.306Z,20.30
2022-07-30T07:27:23.089Z,20.40
2022-07-30T07:30:01.849Z,20.50
2022-07-30T07:32:33.264Z,20.60
2022-07-30T07:34:59.906Z,20.60
2022-07-30T07:37:26.709Z,20.60
2022-07-30T07:39:53.426Z,20.70
2022-07-30T07:42:20.074Z,20.80
2022-07-30T07:44:46.714Z,20.90
2022-07-30T07:47:13.390Z,21.10
2022-07-30T07:49:40.038Z,21.20
2022-07-30T07:52:07.358Z,21.20
2022-07-30T07:54:34.001Z,21.30
2022-07-30T07:57:03.015Z,21.40
2022-07-30T07:59:40.331Z,21.40
2022-07-30T08:02:08.370Z,21.60
2022-07-30T08:04:35.859Z,21.70
2022-07-30T08:07:03.272Z,21.90
2022-07-30T08:09:40.679Z,21.90
2022-07-30T08:12:11.413Z,21.90
2022-07-30T08:14:38.059Z,22.00
2022-07-30T08:17:05.035Z,21.90
2022-07-30T08:19:32.106Z,21.90
2022-07-30T08:21:58.754Z,21.90
2022-07-30T08:24:25.658Z,22.20
2022-07-30T08:26:52.309Z,22.10
2022-07-30T08:29:18.930Z,22.20
2022-07-30T08:31:45.599Z,22.10
2022-07-30T08:34:12.251Z,22.30
2022-07-30T08:36:38.977Z,22.30
2022-07-30T08:39:05.629Z,22.30
2022-07-30T08:41:32.291Z,22.50
2022-07-30T08:44:00.649Z,22.50
2022-07-30T08:46:31.165Z,22.70
2022-07-30T08:48:59.824Z,22.80
2022-07-30T08:51:34.515Z,22.90
2022-07-30T08:54:03.547Z,23.10
2022-07-30T08:56:31.791Z,23.00
2022-07-30T08:59:00.123Z,23.10
2022-07-30T09:01:27.249Z,23.20
2022-07-30T09:03:54.180Z,23.40
2022-07-30T09:06:20.871Z,23.30
2022-07-30T09:08:47.550Z,23.50
2022-07-30T09:11:14.259Z,23.60
2022-07-30T09:13:42.744Z,23.60
2022-07-30T09:16:20.299Z,23.50
2022-07-30T09:18:47.493Z,23.50
2022-07-30T09:21:28.861Z,23.40
2022-07-30T09:24:08.784Z,23.60
2022-07-30T09:27:00.184Z,23.60
2022-07-30T09:29:28.855Z,23.70
2022-07-30T09:32:05.193Z,23.90
2022-07-30T09:34:36.499Z,24.00
2022-07-30T09:37:18.359Z,24.00
2022-07-30T09:39:59.505Z,24.10
2022-07-30T09:42:28.663Z,24.30
2022-07-30T09:45:11.960Z,24.50
2022-07-30T09:47:41.403Z,24.40
2022-07-30T09:50:30.509Z,24.40
2022-07-30T09:53:07.793Z,24.40
2022-07-30T09:55:42.011Z,24.30
2022-07-30T09:58:12.823Z,24.30
2022-07-30T10:00:57.760Z,24.30
2022-07-30T10:03:34.021Z,24.30
2022-07-30T10:06:09.060Z,24.50
2022-07-30T10:08:49.783Z,24.60
2022-07-30T10:11:22.929Z,24.70
2022-07-30T10:13:54.153Z,24.80
2022-07-30T10:16:21.899Z,24.80
2022-07-30T10:18:51.120Z,25.00
2022-07-30T10:21:19.688Z,24.60
2022-07-30T10:23:46.523Z,24.50
2022-07-30T10:26:18.221Z,24.60
2022-07-30T10:28:45.939Z,24.60
2022-07-30T10:31:49.009Z,24.80
2022-07-30T10:34:00.155Z,24.80
2022-07-30T10:36:27.464Z,24.70
2022-07-30T10:38:55.972Z,24.80
2022-07-30T10:41:42.685Z,24.80
2022-07-30T10:44:39.483Z,24.80
2022-07-30T10:47:10.415Z,25.10
2022-07-30T10:49:41.204Z,25.10
2022-07-30T10:52:10.232Z,25.20
2022-07-30T10:54:39.834Z,25.10
2022-07-30T10:57:11.355Z,25.30
2022-07-30T10:59:53.943Z,25.40
2022-07-30T11:02:22.752Z,25.10
2022-07-30T11:04:50.554Z,24.90
2022-07-30T11:07:23.589Z,25.10
2022-07-30T11:10:09.010Z,25.30
2022-07-30T11:12:41.854Z,25.40
2022-07-30T11:15:18.480Z,25.60
2022-07-30T11:18:00.129Z,25.40
2022-07-30T11:20:28.095Z,25.50
2022-07-30T11:22:54.823Z,25.40
2022-07-30T11:25:27.151Z,25.40
2022-07-30T11:28:39.936Z,25.40
2022-07-30T11:31:37.026Z,25.70
2022-07-30T11:34:18.221Z,25.90
2022-07-30T11:37:03.266Z,25.90
2022-07-30T11:39:57.347Z,26.00
2022-07-30T11:42:32.781Z,26.10
2022-07-30T11:45:17.505Z,26.00
2022-07-30T11:47:52.446Z,26.00
2022-07-30T11:50:28.989Z,26.00
2022-07-30T11:52:58.665Z,26.10
2022-07-30T11:55:30.763Z,26.20
2022-07-30T11:57:58.733Z,26.10
2022-07-30T12:00:26.005Z,26.20
2022-07-30T12:02:52.726Z,26.10
2022-07-30T12:05:26.915Z,26.10
2022-07-30T12:07:56.929Z,26.10
2022-07-30T12:10:26.961Z,26.20
2022-07-30T12:13:09.289Z,26.40
2022-07-30T12:15:39.528Z,26.50
2022-07-30T12:18:25.344Z,26.60
2022-07-30T12:20:57.605Z,26.70
2022-07-30T12:23:26.831Z,26.80
2022-07-30T12:25:53.879Z,26.90
2022-07-30T12:28:26.564Z,27.00
2022-07-30T12:30:54.538Z,27.20
2022-07-30T12:33:21.722Z,26.90
2022-07-30T12:35:59.428Z,27.00
2022-07-30T12:38:27.568Z,27.10
2022-07-30T12:41:05.002Z,27.30
2022-07-30T12:43:55.153Z,27.40
2022-07-30T12:46:24.287Z,27.30
2022-07-30T12:49:05.739Z,27.40
2022-07-30T12:51:58.406Z,27.00
2022-07-30T12:54:27.372Z,26.80
2022-07-30T12:57:02.318Z,26.90
2022-07-30T12:59:30.271Z,26.80
2022-07-30T13:01:58.194Z,26.70
2022-07-30T13:04:25.053Z,26.50
2022-07-30T13:07:12.091Z,26.20
2022-07-30T13:09:39.650Z,26.50
2022-07-30T13:12:06.827Z,26.30
2022-07-30T13:14:33.497Z,26.10
2022-07-30T13:17:00.544Z,26.40
2022-07-30T13:19:27.475Z,26.70
2022-07-30T13:21:54.121Z,26.90
2022-07-30T13:24:21.374Z,27.10
2022-07-30T13:26:50.662Z,27.10
2022-07-30T13:29:17.840Z,27.10
2022-07-30T13:31:44.771Z,27.20
2022-07-30T13:34:12.096Z,27.10
2022-07-30T13:36:39.041Z,27.20
2022-07-30T13:39:05.743Z,27.30
2022-07-30T13:41:32.415Z,27.30
2022-07-30T13:43:59.043Z,27.40
2022-07-30T13:46:25.676Z,27.20
2022-07-30T13:48:52.343Z,27.30
2022-07-30T13:51:19.054Z,27.10
2022-07-30T13:53:45.748Z,27.10
2022-07-30T13:56:13.111Z,27.10
2022-07-30T13:58:40.618Z,27.10
2022-07-30T14:01:07.531Z,26.80
2022-07-30T14:03:34.724Z,26.60
2022-07-30T14:06:10.120Z,26.70
2022-07-30T14:08:39.515Z,26.40
2022-07-30T14:11:06.330Z,26.30
2022-07-30T14:13:33.015Z,26.50
2022-07-30T14:15:59.624Z,26.50
2022-07-30T14:18:26.339Z,26.50
2022-07-30T14:20:53.023Z,26.60
2022-07-30T14:23:20.077Z,26.70
2022-07-30T14:25:47.065Z,26.70
2022-07-30T14:28:13.808Z,26.60
2022-07-30T14:30:40.597Z,26.70
2022-07-30T14:33:07.254Z,26.60
2022-07-30T14:35:33.876Z,26.50
2022-07-30T14:38:00.488Z,26.40
2022-07-30T14:40:27.102Z,26.30
2022-07-30T14:42:56.042Z,26.30
2022-07-30T14:45:23.002Z,26.60
2022-07-30T14:47:49.649Z,26.60
2022-07-30T14:50:16.313Z,26.60
2022-07-30T14:52:42.952Z,26.80
2022-07-30T14:55:10.120Z,26.70
2022-07-30T14:57:37.221Z,26.80
2022-07-30T15:00:06.107Z,26.80
2022-07-30T15:02:32.721Z,26.80
2022-07-30T15:04:59.358Z,26.70
2022-07-30T15:07:26.009Z,26.70
2022-07-30T15:09:53.397Z,26.80
2022-07-30T15:12:20.031Z,26.70
2022-07-30T15:14:50.815Z,26.70
2022-07-30T15:17:19.028Z,26.80
2022-07-30T15:19:50.387Z,26.70
2022-07-30T15:22:21.250Z,26.70
2022-07-30T15:24:48.798Z,26.70
2022-07-30T15:27:15.600Z,26.80
2022-07-30T15:29:42.265Z,27.10
2022-07-30T15:32:08.908Z,27.00
2022-07-30T15:34:35.632Z,27.00
2022-07-30T15:37:03.313Z,27.10
2022-07-30T15:39:30.598Z,27.20
2022-07-30T15:41:57.307Z,27.10
2022-07-30T15:44:24.672Z,27.10
2022-07-30T15:46:51.519Z,26.90
2022-07-30T15:49:18.232Z,26.90
2022-07-30T15:51:45.177Z,27.00
2022-07-30T15:54:11.858Z,27.20
2022-07-30T15:56:38.527Z,27.10
2022-07-30T15:59:05.173Z,27.20
2022-07-30T16:01:31.893Z,27.10
2022-07-30T16:03:58.563Z,27.10
2022-07-30T16:06:25.291Z,27.00
2022-07-30T16:08:51.975Z,26.80
2022-07-30T16:11:18.654Z,26.70
2022-07-30T16:13:45.284Z,26.40
2022-07-30T16:16:11.941Z,26.40
2022-07-30T16:18:38.559Z,26.40
2022-07-30T16:21:05.191Z,26.30
2022-07-30T16:23:36.363Z,26.20
2022-07-30T16:26:03.641Z,26.00
2022-07-30T16:28:30.550Z,26.00
2022-07-30T16:30:57.286Z,26.00
2022-07-30T16:33:23.923Z,25.90
2022-07-30T16:35:50.996Z,26.00
2022-07-30T16:38:19.398Z,25.80
2022-07-30T16:40:46.188Z,25.90
2022-07-30T16:43:12.807Z,25.90
2022-07-30T16:45:42.265Z,25.90
2022-07-30T16:48:09.282Z,26.00
2022-07-30T16:50:35.882Z,26.10
2022-07-30T16:53:02.570Z,26.20
2022-07-30T16:55:29.195Z,26.00
2022-07-30T16:57:55.839Z,26.00
2022-07-30T17:00:22.455Z,26.00
2022-07-30T17:02:49.076Z,25.90
2022-07-30T17:05:15.734Z,25.90
2022-07-30T17:07:42.372Z,25.80
2022-07-30T17:10:11.087Z,25.70
2022-07-30T17:12:38.928Z,25.60
2022-07-30T17:15:07.621Z,25.60
2022-07-30T17:17:34.449Z,25.60
2022-07-30T17:20:01.159Z,25.40
2022-07-30T17:22:28.253Z,25.40
2022-07-30T17:24:55.033Z,25.40
2022-07-30T17:27:21.665Z,25.40
2022-07-30T17:29:48.501Z,25.40
2022-07-30T17:32:18.412Z,25.40
2022-07-30T17:34:45.088Z,25.40
2022-07-30T17:37:11.734Z,25.20
2022-07-30T17:40:27.527Z,25.10
2022-07-30T17:42:25.039Z,25.00
2022-07-30T17:44:51.721Z,24.90
2022-07-30T17:47:18.309Z,24.80
2022-07-30T17:49:44.946Z,24.60
2022-07-30T17:52:11.617Z,24.30
2022-07-30T17:54:38.315Z,24.20
2022-07-30T17:57:05.363Z,24.00
2022-07-30T17:59:31.981Z,23.80
2022-07-30T18:01:58.604Z,23.60
2022-07-30T18:04:26.242Z,23.70
2022-07-30T18:06:52.967Z,23.50
2022-07-30T18:09:20.039Z,23.30
2022-07-30T18:11:46.645Z,23.10
2022-07-30T18:14:13.289Z,23.00
2022-07-30T18:16:39.920Z,22.90
2022-07-30T18:19:06.695Z,22.90
2022-07-30T18:21:35.011Z,22.80
2022-07-30T18:24:05.526Z,22.80
2022-07-30T18:26:32.230Z,22.80
2022-07-30T18:28:58.833Z,22.90
2022-07-30T18:31:25.467Z,22.80
2022-07-30T18:33:52.086Z,22.70
2022-07-30T18:36:18.727Z,22.60
2022-07-30T18:38:45.384Z,22.60
2022-07-30T18:41:12.026Z,22.50
2022-07-30T18:43:48.441Z,22.30
2022-07-30T18:46:15.657Z,22.20
2022-07-30T18:48:42.330Z,22.20
2022-07-30T18:51:13.676Z,22.20
2022-07-30T18:53:41.438Z,22.00
2022-07-30T18:56:08.697Z,22.00
2022-07-30T18:58:35.356Z,21.90
2022-07-30T19:01:02.051Z,21.90
2022-07-30T19:03:28.711Z,21.80
2022-07-30T19:05:55.356Z,21.80
2022-07-30T19:08:21.974Z,21.90
2022-07-30T19:10:48.642Z,21.90
2022-07-30T19:13:15.312Z,21.70
2022-07-30T19:15:42.009Z,21.60
2022-07-30T19:18:08.657Z,21.70
2022-07-30T19:20:35.301Z,21.60
2022-07-30T19:23:06.910Z,21.60
2022-07-30T19:25:35.491Z,21.30
2022-07-30T19:28:04.133Z,21.20
2022-07-30T19:30:31.190Z,21.20
2022-07-30T19:33:05.657Z,21.00
2022-07-30T19:35:32.569Z,20.90
2022-07-30T19:37:59.263Z,20.80
2022-07-30T19:40:26.971Z,20.80
2022-07-30T19:42:55.684Z,20.70
2022-07-30T19:45:23.473Z,20.70
2022-07-30T19:47:50.139Z,20.70
2022-07-30T19:50:16.783Z,20.60
2022-07-30T19:52:51.308Z,20.60
2022-07-30T19:55:35.368Z,20.50
2022-07-30T19:58:03.570Z,20.40
2022-07-30T20:00:31.208Z,20.40
2022-07-30T20:03:02.403Z,20.40
2022-07-30T20:05:30.511Z,20.40
2022-07-30T20:07:57.302Z,20.30
2022-07-30T20:10:23.951Z,20.20
2022-07-30T20:12:50.613Z,20.10
2022-07-30T20:15:17.488Z,20.10
2022-07-30T20:17:44.195Z,19.90
2022-07-30T20:20:13.979Z,19.80
2022-07-30T20:22:40.955Z,19.70
2022-07-30T20:25:08.318Z,19.60
2022-07-30T20:27:37.357Z,19.50
2022-07-30T20:30:06.768Z,19.60
2022-07-30T20:32:34.297Z,19.60
2022-07-30T20:35:00.934Z,19.60
2022-07-30T20:37:27.874Z,19.60
2022-07-30T20:39:55.527Z,19.50
2022-07-30T20:42:23.825Z,19.50
2022-07-30T20:44:51.043Z,19.40
2022-07-30T20:47:17.737Z,19.30
2022-07-30T20:50:01.738Z,19.30
2022-07-30T20:52:28.364Z,19.20
2022-07-30T20:54:56.133Z,19.10
2022-07-30T20:57:44.352Z,19.10
2022-07-30T21:00:10.743Z,19.00
2022-07-30T21:02:39.148Z,18.90
2022-07-30T21:05:06.110Z,18.80
2022-07-30T21:07:36.646Z,18.80
2022-07-30T21:10:04.315Z,18.80
2022-07-30T21:12:33.950Z,18.80
2022-07-30T21:15:00.775Z,18.80
2022-07-30T21:17:28.321Z,18.80
2022-07-30T21:19:54.992Z,18.80
2022-07-30T21:22:22.213Z,18.90
2022-07-30T21:24:50.712Z,18.70
2022-07-30T21:27:17.785Z,18.70
2022-07-30T21:29:45.741Z,18.70
2022-07-30T21:32:12.578Z,18.80
2022-07-30T21:34:42.036Z,18.60
2022-07-30T21:37:09.483Z,18.50
2022-07-30T21:39:40.102Z,18.50
2022-07-30T21:42:10.612Z,18.60
2022-07-30T21:44:38.215Z,18.60
2022-07-30T21:47:10.427Z,18.60
2022-07-30T21:49:38.507Z,18.60
2022-07-30T21:52:06.885Z,18.60
2022-07-30T21:54:45.169Z,18.60
2022-07-30T21:57:16.041Z,18.60
2022-07-30T21:59:52.791Z,18.50
2022-07-30T22:02:22.451Z,18.30
2022-07-30T22:04:51.283Z,18.30
2022-07-30T22:07:18.006Z,18.30
2022-07-30T22:09:45.166Z,18.30
2022-07-30T22:12:12.586Z,18.30
2022-07-30T22:14:40.062Z,18.30
2022-07-30T22:17:22.328Z,18.20
2022-07-30T22:19:50.870Z,18.20
2022-07-30T22:22:26.678Z,18.20
2022-07-30T22:24:54.431Z,18.20
2022-07-30T22:27:22.041Z,18.20
2022-07-30T22:29:48.845Z,18.20
2022-07-30T22:32:15.663Z,18.10
2022-07-30T22:34:42.303Z,18.00
2022-07-30T22:37:12.650Z,18.00
2022-07-30T22:39:50.790Z,18.00
2022-07-30T22:45:09.508Z,17.90
2022-07-30T22:47:51.055Z,17.90
2022-07-30T22:50:26.073Z,17.90
2022-07-30T22:53:09.766Z,18.00
2022-07-30T22:55:40.452Z,17.90
2022-07-30T22:58:07.714Z,17.70
2022-07-30T23:00:36.396Z,17.60
2022-07-30T23:03:05.047Z,17.50
2022-07-30T23:05:35.306Z,17.50
2022-07-30T23:08:02.745Z,17.40
2022-07-30T23:10:29.494Z,17.40
2022-07-30T23:12:29.082Z,18.00
2022-07-30T23:12:56.195Z,17.30
2022-07-30T23:15:23.091Z,17.30
2022-07-30T23:17:49.891Z,17.20
2022-07-30T23:20:18.275Z,17.10
2022-07-30T23:22:44.898Z,17.10
2022-07-30T23:25:12.261Z,17.20
2022-07-30T23:27:39.334Z,17.20
2022-07-30T23:30:10.621Z,17.20
2022-07-30T23:32:37.777Z,17.20
2022-07-30T23:35:05.795Z,17.10
2022-07-30T23:37:38.077Z,17.10
2022-07-30T23:40:14.636Z,17.00
2022-07-30T23:42:41.270Z,16.90
2022-07-30T23:45:08.106Z,16.80
2022-07-30T23:48:02.159Z,16.70
2022-07-30T23:50:21.760Z,16.70
2022-07-30T23:52:48.379Z,16.80
2022-07-30T23:55:15.025Z,16.80
2022-07-30T23:57:41.791Z,16.80
